sensor_id;sensor_type;location;lat;lon;timestamp;P1;durP1;ratioP1;P2;durP2;ratioP2
74483;SDS011;62942;52.462;10.846;2023-06-22T00:00:47;11.1;;;12.7;;
74483;SDS011;62942;52.462;10.846;2023-06-22T00:01:57;11.3;;;12.6;;
74483;SDS011;62942;52.462;10.846;2023-06-22T00:03:07;10.7;;;13;;
74483;SDS011;62942;52.462;10.846;2023-06-22T00:04:17;11.1;;;12.5;;
74483;SDS011;62942;52.462;10.846;2023-06-22T00:05:27;11.2;;;12.5;;
74483;SDS011;62942;52.462;10.846;2023-06-22T00:06:27;11.3;;;12.6;;
74483;SDS011;62942;52.462;10.846;2023-06-22T00:07:37;11;;;12.3;;
74483;SDS011;62942;52.462;10.846;2023-06-22T00:08:47;12.1;;;14;;
74483;SDS011;62942;52.462;10.846;2023-06-22T00:09:57;12;;;13.5;;
74483;SDS011;62942;52.462;10.846;2023-06-22T00:11:07;11.8;;;13.2;;
74483;SDS011;62942;52.462;10.846;2023-06-22T00:12:17;11.5;;;12.9;;
74483;SDS011;62942;52.462;10.846;2023-06-22T00:13:27;11.6;;;12.9;;
74483;SDS011;62942;52.462;10.846;2023-06-22T00:14:27;12;;;14.1;;
74483;SDS011;62942;52.462;10.846;2023-06-22T00:15:37;12.2;;;13.6;;
74483;SDS011;62942;52.462;10.846;2023-06-22T00:16:37;11.6;;;13;;
74483;SDS011;62942;52.462;10.846;2023-06-22T00:17:47;11.2;;;13.6;;
74483;SDS011;62942;52.462;10.846;2023-06-22T00:18:47;11.3;;;12.6;;
74483;SDS011;62942;52.462;10.846;2023-06-22T00:19:47;11.8;;;14;;
74483;SDS011;62942;52.462;10.846;2023-06-22T00:20:57;12;;;14.3;;
74483;SDS011;62942;52.462;10.846;2023-06-22T00:21:57;12.2;;;13.6;;
74483;SDS011;62942;52.462;10.846;2023-06-22T00:23:07;12.1;;;13.6;;
74483;SDS011;62942;52.462;10.846;2023-06-22T00:24:07;12.1;;;14.3;;
74483;SDS011;62942;52.462;10.846;2023-06-22T00:25:17;12.7;;;14.2;;
74483;SDS011;62942;52.462;10.846;2023-06-22T00:26:27;12.4;;;16.4;;
74483;SDS011;62942;52.462;10.846;2023-06-22T00:27:27;13.1;;;14.6;;
74483;SDS011;62942;52.462;10.846;2023-06-22T00:28:37;12.6;;;14.1;;
74483;SDS011;62942;52.462;10.846;2023-06-22T00:29:47;12.7;;;14.6;;
74483;SDS011;62942;52.462;10.846;2023-06-22T00:30:47;12.8;;;14.9;;
74483;SDS011;62942;52.462;10.846;2023-06-22T00:31:47;12;;;13.4;;
74483;SDS011;62942;52.462;10.846;2023-06-22T00:32:47;12.1;;;13.6;;
74483;SDS011;62942;52.462;10.846;2023-06-22T00:33:57;12.3;;;13.7;;
74483;SDS011;62942;52.462;10.846;2023-06-22T00:34:57;12.2;;;14.4;;
74483;SDS011;62942;52.462;10.846;2023-06-22T00:36:07;12.5;;;14;;
74483;SDS011;62942;52.462;10.846;2023-06-22T00:37:07;12.6;;;14.1;;
74483;SDS011;62942;52.462;10.846;2023-06-22T00:38:17;12.3;;;13.9;;
74483;SDS011;62942;52.462;10.846;2023-06-22T00:39:27;12.8;;;14.3;;
74483;SDS011;62942;52.462;10.846;2023-06-22T00:40:27;12.7;;;14.2;;
74483;SDS011;62942;52.462;10.846;2023-06-22T00:41:27;13;;;14.9;;
74483;SDS011;62942;52.462;10.846;2023-06-22T00:42:37;13.6;;;15.2;;
74483;SDS011;62942;52.462;10.846;2023-06-22T00:43:47;13.1;;;16.1;;
74483;SDS011;62942;52.462;10.846;2023-06-22T00:44:47;13.2;;;15.6;;
74483;SDS011;62942;52.462;10.846;2023-06-22T00:45:57;13.4;;;15.2;;
74483;SDS011;62942;52.462;10.846;2023-06-22T00:47:07;13.5;;;15.1;;
74483;SDS011;62942;52.462;10.846;2023-06-22T00:48:17;13.3;;;14.8;;
74483;SDS011;62942;52.462;10.846;2023-06-22T00:49:27;13;;;14.6;;
74483;SDS011;62942;52.462;10.846;2023-06-22T00:50:37;12.4;;;14;;
74483;SDS011;62942;52.462;10.846;2023-06-22T00:51:37;12.4;;;14;;
74483;SDS011;62942;52.462;10.846;2023-06-22T00:52:37;13.3;;;14.9;;
74483;SDS011;62942;52.462;10.846;2023-06-22T00:53:47;12.6;;;14.1;;
74483;SDS011;62942;52.462;10.846;2023-06-22T00:54:57;12.6;;;14.1;;
74483;SDS011;62942;52.462;10.846;2023-06-22T00:56:07;12.4;;;14.1;;
74483;SDS011;62942;52.462;10.846;2023-06-22T00:57:17;13.1;;;14.8;;
74483;SDS011;62942;52.462;10.846;2023-06-22T00:58:17;13;;;14.5;;
74483;SDS011;62942;52.462;10.846;2023-06-22T00:59:27;12.6;;;14.1;;
74483;SDS011;62942;52.462;10.846;2023-06-22T01:00:37;12.4;;;14;;
74483;SDS011;62942;52.462;10.846;2023-06-22T01:01:37;12.4;;;16.7;;
74483;SDS011;62942;52.462;10.846;2023-06-22T01:02:37;12.5;;;15.2;;
74483;SDS011;62942;52.462;10.846;2023-06-22T01:03:47;12.4;;;13.9;;
74483;SDS011;62942;52.462;10.846;2023-06-22T01:04:57;13.4;;;15.2;;
74483;SDS011;62942;52.462;10.846;2023-06-22T01:06:07;12.5;;;14;;
74483;SDS011;62942;52.462;10.846;2023-06-22T01:07:19;11.9;;;13.5;;
74483;SDS011;62942;52.462;10.846;2023-06-22T01:08:20;11.9;;;15.2;;
74483;SDS011;62942;52.462;10.846;2023-06-22T01:09:19;12.7;;;14.2;;
74483;SDS011;62942;52.462;10.846;2023-06-22T01:10:29;12.7;;;14.7;;
74483;SDS011;62942;52.462;10.846;2023-06-22T01:11:28;13.1;;;14.6;;
74483;SDS011;62942;52.462;10.846;2023-06-22T01:12:38;12.2;;;13.7;;
74483;SDS011;62942;52.462;10.846;2023-06-22T01:13:48;12.2;;;13.7;;
74483;SDS011;62942;52.462;10.846;2023-06-22T01:14:47;12;;;13.4;;
74483;SDS011;62942;52.462;10.846;2023-06-22T01:15:59;12.2;;;13.6;;
74483;SDS011;62942;52.462;10.846;2023-06-22T01:16:57;12.3;;;13.7;;
74483;SDS011;62942;52.462;10.846;2023-06-22T01:17:57;12.2;;;13.8;;
74483;SDS011;62942;52.462;10.846;2023-06-22T01:19:09;12.3;;;13.9;;
74483;SDS011;62942;52.462;10.846;2023-06-22T01:20:17;12.2;;;13.5;;
74483;SDS011;62942;52.462;10.846;2023-06-22T01:21:17;12.2;;;13.6;;
74483;SDS011;62942;52.462;10.846;2023-06-22T01:22:17;12.3;;;14.4;;
74483;SDS011;62942;52.462;10.846;2023-06-22T01:23:27;12.2;;;13.6;;
74483;SDS011;62942;52.462;10.846;2023-06-22T01:24:27;12.2;;;13.7;;
74483;SDS011;62942;52.462;10.846;2023-06-22T01:25:48;11.8;;;14.3;;
74483;SDS011;62942;52.462;10.846;2023-06-22T01:26:38;12.5;;;14;;
74483;SDS011;62942;52.462;10.846;2023-06-22T01:27:48;11.8;;;13.5;;
74483;SDS011;62942;52.462;10.846;2023-06-22T01:28:57;12.3;;;13.9;;
74483;SDS011;62942;52.462;10.846;2023-06-22T01:29:57;12.8;;;14.6;;
74483;SDS011;62942;52.462;10.846;2023-06-22T01:31:07;13.1;;;14.8;;
74483;SDS011;62942;52.462;10.846;2023-06-22T01:32:06;12.7;;;14.2;;
74483;SDS011;62942;52.462;10.846;2023-06-22T01:33:07;13.4;;;15;;
74483;SDS011;62942;52.462;10.846;2023-06-22T01:34:17;12.8;;;14.4;;
74483;SDS011;62942;52.462;10.846;2023-06-22T01:35:27;12.7;;;14.8;;
74483;SDS011;62942;52.462;10.846;2023-06-22T01:36:27;12.6;;;14.2;;
74483;SDS011;62942;52.462;10.846;2023-06-22T01:37:27;12.5;;;15.2;;
74483;SDS011;62942;52.462;10.846;2023-06-22T01:38:37;12.4;;;13.9;;
74483;SDS011;62942;52.462;10.846;2023-06-22T01:39:37;13;;;15.1;;
74483;SDS011;62942;52.462;10.846;2023-06-22T01:40:47;13.1;;;14.8;;
74483;SDS011;62942;52.462;10.846;2023-06-22T01:41:57;13.2;;;14.8;;
74483;SDS011;62942;52.462;10.846;2023-06-22T01:43:07;12.7;;;14.2;;
74483;SDS011;62942;52.462;10.846;2023-06-22T01:44:17;13.1;;;16.4;;
74483;SDS011;62942;52.462;10.846;2023-06-22T01:45:27;13.5;;;15;;
74483;SDS011;62942;52.462;10.846;2023-06-22T01:46:27;13.5;;;15.1;;
74483;SDS011;62942;52.462;10.846;2023-06-22T01:47:26;13.3;;;15;;
74483;SDS011;62942;52.462;10.846;2023-06-22T01:48:27;12.8;;;14.4;;
74483;SDS011;62942;52.462;10.846;2023-06-22T01:49:37;12.8;;;14.9;;
74483;SDS011;62942;52.462;10.846;2023-06-22T01:50:47;12.5;;;13.9;;
74483;SDS011;62942;52.462;10.846;2023-06-22T01:51:56;12.5;;;14.1;;
74483;SDS011;62942;52.462;10.846;2023-06-22T01:52:56;13.3;;;15.5;;
74483;SDS011;62942;52.462;10.846;2023-06-22T01:54:06;13.4;;;15;;
74483;SDS011;62942;52.462;10.846;2023-06-22T01:55:17;13.8;;;15.5;;
74483;SDS011;62942;52.462;10.846;2023-06-22T01:56:26;13.7;;;15.3;;
74483;SDS011;62942;52.462;10.846;2023-06-22T01:57:27;13.7;;;15.3;;
74483;SDS011;62942;52.462;10.846;2023-06-22T01:58:37;13.8;;;15.5;;
74483;SDS011;62942;52.462;10.846;2023-06-22T01:59:37;13.8;;;15.4;;
74483;SDS011;62942;52.462;10.846;2023-06-22T02:00:48;14;;;15.7;;
74483;SDS011;62942;52.462;10.846;2023-06-22T02:02:01;14.5;;;16.1;;
74483;SDS011;62942;52.462;10.846;2023-06-22T02:02:49;13.6;;;15.2;;
74483;SDS011;62942;52.462;10.846;2023-06-22T02:03:47;14.4;;;16.6;;
74483;SDS011;62942;52.462;10.846;2023-06-22T02:04:47;14.9;;;16.8;;
74483;SDS011;62942;52.462;10.846;2023-06-22T02:05:58;15.2;;;17.2;;
74483;SDS011;62942;52.462;10.846;2023-06-22T02:06:58;15.5;;;18.1;;
74483;SDS011;62942;52.462;10.846;2023-06-22T02:08:07;15.4;;;17.2;;
74483;SDS011;62942;52.462;10.846;2023-06-22T02:09:07;14.9;;;16.6;;
74483;SDS011;62942;52.462;10.846;2023-06-22T02:10:17;15.5;;;17.5;;
74483;SDS011;62942;52.462;10.846;2023-06-22T02:11:46;15.9;;;19.5;;
74483;SDS011;62942;52.462;10.846;2023-06-22T02:12:46;15.6;;;17.4;;
74483;SDS011;62942;52.462;10.846;2023-06-22T02:13:46;15.6;;;17.6;;
74483;SDS011;62942;52.462;10.846;2023-06-22T02:14:56;15.5;;;17.6;;
74483;SDS011;62942;52.462;10.846;2023-06-22T02:16:06;15.6;;;18.2;;
74483;SDS011;62942;52.462;10.846;2023-06-22T02:17:07;15.9;;;17.8;;
74483;SDS011;62942;52.462;10.846;2023-06-22T02:18:16;15.8;;;18;;
74483;SDS011;62942;52.462;10.846;2023-06-22T02:19:16;15.3;;;18.5;;
74483;SDS011;62942;52.462;10.846;2023-06-22T02:20:27;15.6;;;18.9;;
74483;SDS011;62942;52.462;10.846;2023-06-22T02:21:36;15.7;;;17.6;;
74483;SDS011;62942;52.462;10.846;2023-06-22T02:22:46;15.7;;;17.6;;
74483;SDS011;62942;52.462;10.846;2023-06-22T02:23:57;15.8;;;17.7;;
74483;SDS011;62942;52.462;10.846;2023-06-22T02:25:07;15.8;;;17.8;;
74483;SDS011;62942;52.462;10.846;2023-06-22T02:26:16;15.4;;;17.6;;
74483;SDS011;62942;52.462;10.846;2023-06-22T02:27:26;16;;;17.9;;
74483;SDS011;62942;52.462;10.846;2023-06-22T02:28:36;15.9;;;17.8;;
74483;SDS011;62942;52.462;10.846;2023-06-22T02:29:46;15.7;;;17.7;;
74483;SDS011;62942;52.462;10.846;2023-06-22T02:30:56;15.2;;;17;;
74483;SDS011;62942;52.462;10.846;2023-06-22T02:31:56;15.1;;;16.9;;
74483;SDS011;62942;52.462;10.846;2023-06-22T02:33:06;15.7;;;18.2;;
74483;SDS011;62942;52.462;10.846;2023-06-22T02:34:16;15.4;;;17.3;;
74483;SDS011;62942;52.462;10.846;2023-06-22T02:35:27;15.3;;;19.1;;
74483;SDS011;62942;52.462;10.846;2023-06-22T02:36:26;15.3;;;17.1;;
74483;SDS011;62942;52.462;10.846;2023-06-22T02:37:36;15.9;;;18.4;;
74483;SDS011;62942;52.462;10.846;2023-06-22T02:38:36;15.9;;;18.1;;
74483;SDS011;62942;52.462;10.846;2023-06-22T02:39:46;15.7;;;17.6;;
74483;SDS011;62942;52.462;10.846;2023-06-22T02:40:56;15.6;;;17.5;;
74483;SDS011;62942;52.462;10.846;2023-06-22T02:41:56;15.6;;;17.6;;
74483;SDS011;62942;52.462;10.846;2023-06-22T02:43:06;15.6;;;17.4;;
74483;SDS011;62942;52.462;10.846;2023-06-22T02:44:16;15.2;;;17;;
74483;SDS011;62942;52.462;10.846;2023-06-22T02:45:27;15.6;;;18.5;;
74483;SDS011;62942;52.462;10.846;2023-06-22T02:46:26;14.7;;;16.9;;
74483;SDS011;62942;52.462;10.846;2023-06-22T02:47:36;15.1;;;16.9;;
74483;SDS011;62942;52.462;10.846;2023-06-22T02:48:36;15.4;;;17.6;;
74483;SDS011;62942;52.462;10.846;2023-06-22T02:49:36;14.9;;;16.7;;
74483;SDS011;62942;52.462;10.846;2023-06-22T02:50:46;15.2;;;17.1;;
74483;SDS011;62942;52.462;10.846;2023-06-22T02:51:57;15;;;17.2;;
74483;SDS011;62942;52.462;10.846;2023-06-22T02:52:56;15.5;;;17.3;;
74483;SDS011;62942;52.462;10.846;2023-06-22T02:54:06;15.2;;;17;;
74483;SDS011;62942;52.462;10.846;2023-06-22T02:55:16;15.9;;;17.7;;
74483;SDS011;62942;52.462;10.846;2023-06-22T02:56:28;15.4;;;17.3;;
74483;SDS011;62942;52.462;10.846;2023-06-22T02:57:36;15.5;;;17.4;;
74483;SDS011;62942;52.462;10.846;2023-06-22T02:58:46;15;;;16.8;;
74483;SDS011;62942;52.462;10.846;2023-06-22T02:59:56;15.5;;;17.6;;
74483;SDS011;62942;52.462;10.846;2023-06-22T03:01:06;15.4;;;17.5;;
74483;SDS011;62942;52.462;10.846;2023-06-22T03:02:06;15.6;;;17.5;;
74483;SDS011;62942;52.462;10.846;2023-06-22T03:03:06;15.3;;;17.1;;
74483;SDS011;62942;52.462;10.846;2023-06-22T03:04:17;15.6;;;17.4;;
74483;SDS011;62942;52.462;10.846;2023-06-22T03:05:26;15.7;;;17.6;;
74483;SDS011;62942;52.462;10.846;2023-06-22T03:06:26;15.8;;;17.6;;
74483;SDS011;62942;52.462;10.846;2023-06-22T03:07:36;15.4;;;17.2;;
74483;SDS011;62942;52.462;10.846;2023-06-22T03:08:46;15.2;;;17;;
74483;SDS011;62942;52.462;10.846;2023-06-22T03:09:56;15.4;;;17.2;;
74483;SDS011;62942;52.462;10.846;2023-06-22T03:10:56;14.8;;;17.2;;
74483;SDS011;62942;52.462;10.846;2023-06-22T03:12:07;14.9;;;16.6;;
74483;SDS011;62942;52.462;10.846;2023-06-22T03:13:16;15.1;;;16.9;;
74483;SDS011;62942;52.462;10.846;2023-06-22T03:14:16;14.9;;;16.7;;
74483;SDS011;62942;52.462;10.846;2023-06-22T03:15:16;14.8;;;16.6;;
74483;SDS011;62942;52.462;10.846;2023-06-22T03:16:26;14.5;;;17.8;;
74483;SDS011;62942;52.462;10.846;2023-06-22T03:17:37;14.3;;;15.9;;
74483;SDS011;62942;52.462;10.846;2023-06-22T03:18:46;14.8;;;16.5;;
74483;SDS011;62942;52.462;10.846;2023-06-22T03:19:46;15.4;;;17.2;;
74483;SDS011;62942;52.462;10.846;2023-06-22T03:20:46;15;;;16.7;;
74483;SDS011;62942;52.462;10.846;2023-06-22T03:21:56;14.9;;;16.6;;
74483;SDS011;62942;52.462;10.846;2023-06-22T03:22:56;15;;;16.8;;
74483;SDS011;62942;52.462;10.846;2023-06-22T03:24:07;15.1;;;17.2;;
74483;SDS011;62942;52.462;10.846;2023-06-22T03:25:16;14.9;;;16.7;;
74483;SDS011;62942;52.462;10.846;2023-06-22T03:26:16;14.9;;;16.6;;
74483;SDS011;62942;52.462;10.846;2023-06-22T03:27:26;14.7;;;16.9;;
74483;SDS011;62942;52.462;10.846;2023-06-22T03:28:36;14.3;;;16;;
74483;SDS011;62942;52.462;10.846;2023-06-22T03:29:36;14;;;15.6;;
74483;SDS011;62942;52.462;10.846;2023-06-22T03:30:37;14;;;16.2;;
74483;SDS011;62942;52.462;10.846;2023-06-22T03:31:36;13.7;;;15.4;;
74483;SDS011;62942;52.462;10.846;2023-06-22T03:32:36;14;;;15.6;;
74483;SDS011;62942;52.462;10.846;2023-06-22T03:33:36;13.4;;;15;;
74483;SDS011;62942;52.462;10.846;2023-06-22T03:34:36;13.5;;;15.1;;
74483;SDS011;62942;52.462;10.846;2023-06-22T03:35:37;13.5;;;16;;
74483;SDS011;62942;52.462;10.846;2023-06-22T03:36:46;13.3;;;15.6;;
74483;SDS011;62942;52.462;10.846;2023-06-22T03:37:56;13.1;;;14.7;;
74483;SDS011;62942;52.462;10.846;2023-06-22T03:38:57;13.7;;;15.4;;
74483;SDS011;62942;52.462;10.846;2023-06-22T03:39:56;14.4;;;16.1;;
74483;SDS011;62942;52.462;10.846;2023-06-22T03:41:06;14;;;15.8;;
74483;SDS011;62942;52.462;10.846;2023-06-22T03:42:06;13.9;;;16.8;;
74483;SDS011;62942;52.462;10.846;2023-06-22T03:43:16;13.4;;;15;;
74483;SDS011;62942;52.462;10.846;2023-06-22T03:44:16;13.8;;;15.3;;
74483;SDS011;62942;52.462;10.846;2023-06-22T03:45:26;13.3;;;15.9;;
74483;SDS011;62942;52.462;10.846;2023-06-22T03:46:26;13.9;;;17.8;;
74483;SDS011;62942;52.462;10.846;2023-06-22T03:47:36;13.7;;;15.3;;
74483;SDS011;62942;52.462;10.846;2023-06-22T03:48:37;13.1;;;14.7;;
74483;SDS011;62942;52.462;10.846;2023-06-22T03:49:46;13.8;;;15.4;;
74483;SDS011;62942;52.462;10.846;2023-06-22T03:50:46;14;;;16.3;;
74483;SDS011;62942;52.462;10.846;2023-06-22T03:51:46;14.1;;;16.7;;
74483;SDS011;62942;52.462;10.846;2023-06-22T03:52:46;13.4;;;15.2;;
74483;SDS011;62942;52.462;10.846;2023-06-22T03:53:46;13.9;;;15.5;;
74483;SDS011;62942;52.462;10.846;2023-06-22T03:54:56;14.1;;;15.8;;
74483;SDS011;62942;52.462;10.846;2023-06-22T03:55:56;13.5;;;15.1;;
74483;SDS011;62942;52.462;10.846;2023-06-22T03:57:06;13.5;;;15.1;;
74483;SDS011;62942;52.462;10.846;2023-06-22T03:58:16;14;;;15.6;;
74483;SDS011;62942;52.462;10.846;2023-06-22T03:59:16;13.4;;;15.6;;
74483;SDS011;62942;52.462;10.846;2023-06-22T04:00:26;13.4;;;14.9;;
74483;SDS011;62942;52.462;10.846;2023-06-22T04:01:36;13.3;;;14.8;;
74483;SDS011;62942;52.462;10.846;2023-06-22T04:02:46;13;;;14.6;;
74483;SDS011;62942;52.462;10.846;2023-06-22T04:03:56;13;;;14.6;;
74483;SDS011;62942;52.462;10.846;2023-06-22T04:04:56;13.2;;;14.8;;
74483;SDS011;62942;52.462;10.846;2023-06-22T04:05:56;12.7;;;14.2;;
74483;SDS011;62942;52.462;10.846;2023-06-22T04:07:06;13.4;;;15;;
74483;SDS011;62942;52.462;10.846;2023-06-22T04:08:06;12.8;;;14.3;;
74483;SDS011;62942;52.462;10.846;2023-06-22T04:09:06;12.6;;;14.3;;
74483;SDS011;62942;52.462;10.846;2023-06-22T04:10:16;12.9;;;14.4;;
74483;SDS011;62942;52.462;10.846;2023-06-22T04:11:16;12.6;;;14;;
74483;SDS011;62942;52.462;10.846;2023-06-22T04:12:26;12.7;;;14.2;;
74483;SDS011;62942;52.462;10.846;2023-06-22T04:13:36;12.6;;;14.1;;
74483;SDS011;62942;52.462;10.846;2023-06-22T04:14:36;12.5;;;13.9;;
74483;SDS011;62942;52.462;10.846;2023-06-22T04:15:36;12.5;;;13.9;;
74483;SDS011;62942;52.462;10.846;2023-06-22T04:16:46;12.5;;;13.9;;
74483;SDS011;62942;52.462;10.846;2023-06-22T04:17:46;12.4;;;13.9;;
74483;SDS011;62942;52.462;10.846;2023-06-22T04:18:46;11.8;;;13.1;;
74483;SDS011;62942;52.462;10.846;2023-06-22T04:19:46;12.4;;;13.9;;
74483;SDS011;62942;52.462;10.846;2023-06-22T04:20:56;11.8;;;13.2;;
74483;SDS011;62942;52.462;10.846;2023-06-22T04:21:56;12;;;14.3;;
74483;SDS011;62942;52.462;10.846;2023-06-22T04:23:06;11.9;;;13.3;;
74483;SDS011;62942;52.462;10.846;2023-06-22T04:24:16;12.1;;;13.7;;
74483;SDS011;62942;52.462;10.846;2023-06-22T04:25:26;11.8;;;13.2;;
74483;SDS011;62942;52.462;10.846;2023-06-22T04:26:26;12.1;;;13.5;;
74483;SDS011;62942;52.462;10.846;2023-06-22T04:27:36;12.1;;;15.7;;
74483;SDS011;62942;52.462;10.846;2023-06-22T04:28:46;11.9;;;13.9;;
74483;SDS011;62942;52.462;10.846;2023-06-22T04:29:57;11.5;;;12.8;;
74483;SDS011;62942;52.462;10.846;2023-06-22T04:31:06;11.6;;;12.9;;
74483;SDS011;62942;52.462;10.846;2023-06-22T04:32:06;11.4;;;12.9;;
74483;SDS011;62942;52.462;10.846;2023-06-22T04:33:16;12.1;;;14.5;;
74483;SDS011;62942;52.462;10.846;2023-06-22T04:34:27;11.4;;;12.8;;
74483;SDS011;62942;52.462;10.846;2023-06-22T04:35:36;11.3;;;12.8;;
74483;SDS011;62942;52.462;10.846;2023-06-22T04:36:46;11.4;;;12.7;;
74483;SDS011;62942;52.462;10.846;2023-06-22T04:37:57;10.8;;;12.1;;
74483;SDS011;62942;52.462;10.846;2023-06-22T04:38:56;11.1;;;12.4;;
74483;SDS011;62942;52.462;10.846;2023-06-22T04:40:06;10.9;;;12.2;;
74483;SDS011;62942;52.462;10.846;2023-06-22T04:41:16;10.5;;;11.9;;
74483;SDS011;62942;52.462;10.846;2023-06-22T04:42:26;10.3;;;11.5;;
74483;SDS011;62942;52.462;10.846;2023-06-22T04:43:36;10;;;11.4;;
74483;SDS011;62942;52.462;10.846;2023-06-22T04:44:36;10.1;;;12.1;;
74483;SDS011;62942;52.462;10.846;2023-06-22T04:45:46;10.4;;;12.3;;
74483;SDS011;62942;52.462;10.846;2023-06-22T04:46:46;10.1;;;11.3;;
74483;SDS011;62942;52.462;10.846;2023-06-22T04:47:46;10.1;;;11.3;;
74483;SDS011;62942;52.462;10.846;2023-06-22T04:48:56;9.8;;;11.4;;
74483;SDS011;62942;52.462;10.846;2023-06-22T04:50:06;9.8;;;10.9;;
74483;SDS011;62942;52.462;10.846;2023-06-22T04:51:16;9.5;;;10.8;;
74483;SDS011;62942;52.462;10.846;2023-06-22T04:52:26;9.6;;;11.6;;
74483;SDS011;62942;52.462;10.846;2023-06-22T04:53:36;9.2;;;10.7;;
74483;SDS011;62942;52.462;10.846;2023-06-22T04:54:46;9.4;;;10.5;;
74483;SDS011;62942;52.462;10.846;2023-06-22T04:55:46;9.2;;;11.1;;
74483;SDS011;62942;52.462;10.846;2023-06-22T04:56:56;8.7;;;10;;
74483;SDS011;62942;52.462;10.846;2023-06-22T04:57:56;9.1;;;10.2;;
74483;SDS011;62942;52.462;10.846;2023-06-22T04:59:06;8.8;;;10;;
74483;SDS011;62942;52.462;10.846;2023-06-22T05:00:17;8.4;;;10.6;;
74483;SDS011;62942;52.462;10.846;2023-06-22T05:01:26;8.4;;;9.8;;
74483;SDS011;62942;52.462;10.846;2023-06-22T05:02:36;8.6;;;9.9;;
74483;SDS011;62942;52.462;10.846;2023-06-22T05:03:46;8.4;;;9.5;;
74483;SDS011;62942;52.462;10.846;2023-06-22T05:04:46;9.1;;;12.2;;
74483;SDS011;62942;52.462;10.846;2023-06-22T05:05:46;8.3;;;10.5;;
74483;SDS011;62942;52.462;10.846;2023-06-22T05:06:56;8.3;;;10.3;;
74483;SDS011;62942;52.462;10.846;2023-06-22T05:07:56;8.2;;;9.8;;
74483;SDS011;62942;52.462;10.846;2023-06-22T05:08:56;8.3;;;10.1;;
74483;SDS011;62942;52.462;10.846;2023-06-22T05:10:06;8.6;;;9.7;;
74483;SDS011;62942;52.462;10.846;2023-06-22T05:11:06;8.5;;;10.1;;
74483;SDS011;62942;52.462;10.846;2023-06-22T05:12:16;8.6;;;11.2;;
74483;SDS011;62942;52.462;10.846;2023-06-22T05:13:16;8.4;;;10.3;;
74483;SDS011;62942;52.462;10.846;2023-06-22T05:14:26;8.2;;;9.4;;
74483;SDS011;62942;52.462;10.846;2023-06-22T05:15:26;8;;;9.5;;
74483;SDS011;62942;52.462;10.846;2023-06-22T05:16:26;8.2;;;9.4;;
74483;SDS011;62942;52.462;10.846;2023-06-22T05:17:26;8.3;;;11.7;;
74483;SDS011;62942;52.462;10.846;2023-06-22T05:18:36;7.9;;;9.2;;
74483;SDS011;62942;52.462;10.846;2023-06-22T05:19:36;7.7;;;8.6;;
74483;SDS011;62942;52.462;10.846;2023-06-22T05:20:46;7.9;;;9;;
74483;SDS011;62942;52.462;10.846;2023-06-22T05:21:56;7.5;;;9.6;;
74483;SDS011;62942;52.462;10.846;2023-06-22T05:23:06;7.4;;;9.3;;
74483;SDS011;62942;52.462;10.846;2023-06-22T05:24:06;7.5;;;9;;
74483;SDS011;62942;52.462;10.846;2023-06-22T05:25:16;7.5;;;9.7;;
74483;SDS011;62942;52.462;10.846;2023-06-22T05:26:26;7.4;;;10.3;;
74483;SDS011;62942;52.462;10.846;2023-06-22T05:27:36;7.3;;;9.8;;
74483;SDS011;62942;52.462;10.846;2023-06-22T05:28:36;7.4;;;12.2;;
74483;SDS011;62942;52.462;10.846;2023-06-22T05:29:36;7.5;;;8.6;;
74483;SDS011;62942;52.462;10.846;2023-06-22T05:30:46;7;;;9.4;;
74483;SDS011;62942;52.462;10.846;2023-06-22T05:31:56;7.2;;;8.7;;
74483;SDS011;62942;52.462;10.846;2023-06-22T05:33:06;7.1;;;8.8;;
74483;SDS011;62942;52.462;10.846;2023-06-22T05:34:16;7;;;8.9;;
74483;SDS011;62942;52.462;10.846;2023-06-22T05:35:26;7.1;;;8.1;;
74483;SDS011;62942;52.462;10.846;2023-06-22T05:36:36;7;;;10.2;;
74483;SDS011;62942;52.462;10.846;2023-06-22T05:37:36;7.2;;;9.8;;
74483;SDS011;62942;52.462;10.846;2023-06-22T05:38:46;6.9;;;8.4;;
74483;SDS011;62942;52.462;10.846;2023-06-22T05:39:56;7.5;;;8.9;;
74483;SDS011;62942;52.462;10.846;2023-06-22T05:41:06;7.4;;;9.5;;
74483;SDS011;62942;52.462;10.846;2023-06-22T05:42:07;7.7;;;9.4;;
74483;SDS011;62942;52.462;10.846;2023-06-22T05:43:06;7.4;;;8.5;;
74483;SDS011;62942;52.462;10.846;2023-06-22T05:44:16;7.5;;;9.4;;
74483;SDS011;62942;52.462;10.846;2023-06-22T05:45:26;7.4;;;10.1;;
74483;SDS011;62942;52.462;10.846;2023-06-22T05:46:36;7.5;;;10.2;;
74483;SDS011;62942;52.462;10.846;2023-06-22T05:47:46;7.3;;;8.4;;
74483;SDS011;62942;52.462;10.846;2023-06-22T05:48:56;7.4;;;8.9;;
74483;SDS011;62942;52.462;10.846;2023-06-22T05:50:06;7.6;;;11.1;;
74483;SDS011;62942;52.462;10.846;2023-06-22T05:51:16;7.8;;;11.1;;
74483;SDS011;62942;52.462;10.846;2023-06-22T05:52:26;8;;;9;;
74483;SDS011;62942;52.462;10.846;2023-06-22T05:53:26;7.6;;;9.4;;
74483;SDS011;62942;52.462;10.846;2023-06-22T05:54:36;7.4;;;9.9;;
74483;SDS011;62942;52.462;10.846;2023-06-22T05:55:36;7.2;;;10.5;;
74483;SDS011;62942;52.462;10.846;2023-06-22T05:56:46;7.7;;;10.2;;
74483;SDS011;62942;52.462;10.846;2023-06-22T05:57:56;7.1;;;8.3;;
74483;SDS011;62942;52.462;10.846;2023-06-22T05:58:56;7.3;;;10.4;;
74483;SDS011;62942;52.462;10.846;2023-06-22T06:00:06;7.3;;;9;;
74483;SDS011;62942;52.462;10.846;2023-06-22T06:01:16;7.3;;;8.4;;
74483;SDS011;62942;52.462;10.846;2023-06-22T06:02:26;7.4;;;10.9;;
74483;SDS011;62942;52.462;10.846;2023-06-22T06:03:26;7.3;;;9;;
74483;SDS011;62942;52.462;10.846;2023-06-22T06:04:36;7.8;;;9.3;;
74483;SDS011;62942;52.462;10.846;2023-06-22T06:05:46;7;;;8.1;;
74483;SDS011;62942;52.462;10.846;2023-06-22T06:06:46;7.1;;;10;;
74483;SDS011;62942;52.462;10.846;2023-06-22T06:07:46;7.4;;;9.1;;
74483;SDS011;62942;52.462;10.846;2023-06-22T06:08:56;7.3;;;8.4;;
74483;SDS011;62942;52.462;10.846;2023-06-22T06:10:06;7.2;;;8.4;;
74483;SDS011;62942;52.462;10.846;2023-06-22T06:11:16;6.9;;;9.8;;
74483;SDS011;62942;52.462;10.846;2023-06-22T06:12:16;7;;;8.6;;
74483;SDS011;62942;52.462;10.846;2023-06-22T06:13:26;7.2;;;8;;
74483;SDS011;62942;52.462;10.846;2023-06-22T06:14:26;6.9;;;8.4;;
74483;SDS011;62942;52.462;10.846;2023-06-22T06:15:36;7;;;8.3;;
74483;SDS011;62942;52.462;10.846;2023-06-22T06:16:46;7.2;;;8.5;;
74483;SDS011;62942;52.462;10.846;2023-06-22T06:17:56;6.8;;;8.5;;
74483;SDS011;62942;52.462;10.846;2023-06-22T06:18:56;7;;;8.7;;
74483;SDS011;62942;52.462;10.846;2023-06-22T06:20:06;7;;;9.2;;
74483;SDS011;62942;52.462;10.846;2023-06-22T06:21:16;6.7;;;8.3;;
74483;SDS011;62942;52.462;10.846;2023-06-22T06:22:26;7;;;10.7;;
74483;SDS011;62942;52.462;10.846;2023-06-22T06:23:36;6.9;;;9.7;;
74483;SDS011;62942;52.462;10.846;2023-06-22T06:24:36;7;;;9.5;;
74483;SDS011;62942;52.462;10.846;2023-06-22T06:25:46;6.8;;;10.4;;
74483;SDS011;62942;52.462;10.846;2023-06-22T06:26:46;7;;;9;;
74483;SDS011;62942;52.462;10.846;2023-06-22T06:27:46;6.9;;;8.7;;
74483;SDS011;62942;52.462;10.846;2023-06-22T06:28:46;6.9;;;8.4;;
74483;SDS011;62942;52.462;10.846;2023-06-22T06:29:56;6.9;;;8.9;;
74483;SDS011;62942;52.462;10.846;2023-06-22T06:30:56;6.7;;;10.5;;
74483;SDS011;62942;52.462;10.846;2023-06-22T06:31:56;6.8;;;8.9;;
74483;SDS011;62942;52.462;10.846;2023-06-22T06:32:56;6.6;;;9;;
74483;SDS011;62942;52.462;10.846;2023-06-22T06:33:56;6.9;;;9.3;;
74483;SDS011;62942;52.462;10.846;2023-06-22T06:35:06;6.8;;;8.7;;
74483;SDS011;62942;52.462;10.846;2023-06-22T06:36:06;6.9;;;9.2;;
74483;SDS011;62942;52.462;10.846;2023-06-22T06:37:06;6.5;;;9.4;;